sensor_id;sensor_type;location;lat;lon;timestamp;P1;durP1;ratioP1;P2;durP2;ratioP2
26656;SDS011;14279;50.010;8.260;2022-11-14T00:02:00;14.60;;;8.63;;
26656;SDS011;14279;50.010;8.260;2022-11-14T00:04:25;11.70;;;8.90;;
26656;SDS011;14279;50.010;8.260;2022-11-14T00:06:50;12.37;;;8.00;;
26656;SDS011;14279;50.010;8.260;2022-11-14T00:09:16;10.67;;;8.60;;
26656;SDS011;14279;50.010;8.260;2022-11-14T00:11:42;13.17;;;8.13;;
26656;SDS011;14279;50.010;8.260;2022-11-14T00:14:08;12.07;;;8.77;;
26656;SDS011;14279;50.010;8.260;2022-11-14T00:16:34;10.23;;;8.20;;
26656;SDS011;14279;50.010;8.260;2022-11-14T00:18:59;15.33;;;9.40;;
26656;SDS011;14279;50.010;8.260;2022-11-14T00:21:25;12.23;;;8.10;;
26656;SDS011;14279;50.010;8.260;2022-11-14T00:23:50;12.53;;;8.40;;
26656;SDS011;14279;50.010;8.260;2022-11-14T00:26:15;12.13;;;8.60;;
26656;SDS011;14279;50.010;8.260;2022-11-14T00:28:41;11.70;;;8.50;;
26656;SDS011;14279;50.010;8.260;2022-11-14T00:31:06;9.97;;;7.60;;
26656;SDS011;14279;50.010;8.260;2022-11-14T00:33:33;13.00;;;9.30;;
26656;SDS011;14279;50.010;8.260;2022-11-14T00:35:58;12.67;;;8.70;;
26656;SDS011;14279;50.010;8.260;2022-11-14T00:38:24;15.40;;;9.00;;
26656;SDS011;14279;50.010;8.260;2022-11-14T00:40:49;11.50;;;8.93;;
26656;SDS011;14279;50.010;8.260;2022-11-14T00:43:17;12.03;;;9.10;;
26656;SDS011;14279;50.010;8.260;2022-11-14T00:45:43;13.60;;;9.33;;
26656;SDS011;14279;50.010;8.260;2022-11-14T00:48:08;14.87;;;9.60;;
26656;SDS011;14279;50.010;8.260;2022-11-14T00:50:33;12.10;;;9.20;;
26656;SDS011;14279;50.010;8.260;2022-11-14T00:52:59;17.60;;;9.10;;
26656;SDS011;14279;50.010;8.260;2022-11-14T00:55:24;13.80;;;9.20;;
26656;SDS011;14279;50.010;8.260;2022-11-14T00:57:49;12.10;;;9.30;;
26656;SDS011;14279;50.010;8.260;2022-11-14T01:00:15;12.53;;;8.90;;
26656;SDS011;14279;50.010;8.260;2022-11-14T01:02:40;12.33;;;9.63;;
26656;SDS011;14279;50.010;8.260;2022-11-14T01:05:05;14.27;;;10.43;;
26656;SDS011;14279;50.010;8.260;2022-11-14T01:07:31;14.77;;;10.50;;
26656;SDS011;14279;50.010;8.260;2022-11-14T01:09:56;12.10;;;10.43;;
26656;SDS011;14279;50.010;8.260;2022-11-14T01:12:21;16.97;;;11.40;;
26656;SDS011;14279;50.010;8.260;2022-11-14T01:14:47;20.97;;;12.00;;
26656;SDS011;14279;50.010;8.260;2022-11-14T01:17:12;17.80;;;12.00;;
26656;SDS011;14279;50.010;8.260;2022-11-14T01:19:37;18.23;;;11.80;;
26656;SDS011;14279;50.010;8.260;2022-11-14T01:22:02;15.87;;;12.17;;
26656;SDS011;14279;50.010;8.260;2022-11-14T01:24:28;18.50;;;13.13;;
26656;SDS011;14279;50.010;8.260;2022-11-14T01:26:55;16.57;;;11.97;;
26656;SDS011;14279;50.010;8.260;2022-11-14T01:29:20;22.90;;;12.90;;
26656;SDS011;14279;50.010;8.260;2022-11-14T01:31:46;23.07;;;15.30;;
26656;SDS011;14279;50.010;8.260;2022-11-14T01:34:11;22.43;;;16.03;;
26656;SDS011;14279;50.010;8.260;2022-11-14T01:36:36;31.53;;;17.77;;
26656;SDS011;14279;50.010;8.260;2022-11-14T01:39:02;32.00;;;18.10;;
26656;SDS011;14279;50.010;8.260;2022-11-14T01:41:27;26.50;;;18.00;;
26656;SDS011;14279;50.010;8.260;2022-11-14T01:43:52;38.90;;;20.30;;
26656;SDS011;14279;50.010;8.260;2022-11-14T01:46:20;40.37;;;20.47;;
26656;SDS011;14279;50.010;8.260;2022-11-14T01:48:50;50.40;;;20.80;;
26656;SDS011;14279;50.010;8.260;2022-11-14T01:51:25;41.87;;;20.87;;
26656;SDS011;14279;50.010;8.260;2022-11-14T01:53:54;44.90;;;20.60;;
26656;SDS011;14279;50.010;8.260;2022-11-14T01:56:33;42.03;;;20.10;;
26656;SDS011;14279;50.010;8.260;2022-11-14T01:59:12;36.47;;;21.07;;
26656;SDS011;14279;50.010;8.260;2022-11-14T02:01:45;43.17;;;21.53;;
26656;SDS011;14279;50.010;8.260;2022-11-14T02:04:14;64.03;;;20.80;;
26656;SDS011;14279;50.010;8.260;2022-11-14T02:06:44;43.00;;;20.17;;
26656;SDS011;14279;50.010;8.260;2022-11-14T02:09:11;39.03;;;21.43;;
26656;SDS011;14279;50.010;8.260;2022-11-14T02:11:40;53.93;;;22.17;;
26656;SDS011;14279;50.010;8.260;2022-11-14T02:14:07;52.90;;;19.40;;
26656;SDS011;14279;50.010;8.260;2022-11-14T02:16:33;41.33;;;20.90;;
26656;SDS011;14279;50.010;8.260;2022-11-14T02:18:58;41.43;;;21.73;;
26656;SDS011;14279;50.010;8.260;2022-11-14T02:21:24;50.73;;;22.80;;
26656;SDS011;14279;50.010;8.260;2022-11-14T02:23:49;43.67;;;23.70;;
26656;SDS011;14279;50.010;8.260;2022-11-14T02:26:15;34.67;;;21.50;;
26656;SDS011;14279;50.010;8.260;2022-11-14T02:28:42;37.67;;;20.40;;
26656;SDS011;14279;50.010;8.260;2022-11-14T02:31:08;35.33;;;19.80;;
26656;SDS011;14279;50.010;8.260;2022-11-14T02:33:33;48.53;;;25.00;;
26656;SDS011;14279;50.010;8.260;2022-11-14T02:35:58;43.30;;;23.30;;
26656;SDS011;14279;50.010;8.260;2022-11-14T02:38:24;50.67;;;23.20;;
26656;SDS011;14279;50.010;8.260;2022-11-14T02:40:49;55.10;;;23.53;;
26656;SDS011;14279;50.010;8.260;2022-11-14T02:43:14;48.13;;;24.43;;
26656;SDS011;14279;50.010;8.260;2022-11-14T02:45:39;47.60;;;22.80;;
26656;SDS011;14279;50.010;8.260;2022-11-14T02:48:05;46.67;;;25.43;;
26656;SDS011;14279;50.010;8.260;2022-11-14T02:50:30;51.63;;;23.50;;
26656;SDS011;14279;50.010;8.260;2022-11-14T02:52:56;50.60;;;23.40;;
26656;SDS011;14279;50.010;8.260;2022-11-14T02:55:21;51.53;;;23.00;;
26656;SDS011;14279;50.010;8.260;2022-11-14T02:57:46;54.53;;;24.37;;
26656;SDS011;14279;50.010;8.260;2022-11-14T03:00:12;48.10;;;23.30;;
26656;SDS011;14279;50.010;8.260;2022-11-14T03:02:37;41.57;;;22.27;;
26656;SDS011;14279;50.010;8.260;2022-11-14T03:05:03;48.30;;;24.37;;
26656;SDS011;14279;50.010;8.260;2022-11-14T03:07:28;43.77;;;24.27;;
26656;SDS011;14279;50.010;8.260;2022-11-14T03:09:53;47.20;;;23.80;;
26656;SDS011;14279;50.010;8.260;2022-11-14T03:12:19;54.53;;;22.87;;
26656;SDS011;14279;50.010;8.260;2022-11-14T03:14:44;38.70;;;23.27;;
26656;SDS011;14279;50.010;8.260;2022-11-14T03:17:10;55.70;;;22.80;;
26656;SDS011;14279;50.010;8.260;2022-11-14T03:19:35;54.67;;;24.10;;
26656;SDS011;14279;50.010;8.260;2022-11-14T03:22:01;42.13;;;22.70;;
26656;SDS011;14279;50.010;8.260;2022-11-14T03:24:26;46.00;;;22.63;;
26656;SDS011;14279;50.010;8.260;2022-11-14T03:26:51;37.30;;;21.87;;
26656;SDS011;14279;50.010;8.260;2022-11-14T03:29:17;41.83;;;22.33;;
26656;SDS011;14279;50.010;8.260;2022-11-14T03:31:42;41.77;;;21.93;;
26656;SDS011;14279;50.010;8.260;2022-11-14T03:34:08;39.47;;;22.07;;
26656;SDS011;14279;50.010;8.260;2022-11-14T03:36:34;35.97;;;20.77;;
26656;SDS011;14279;50.010;8.260;2022-11-14T03:39:00;38.63;;;22.07;;
26656;SDS011;14279;50.010;8.260;2022-11-14T03:41:27;37.27;;;19.10;;
26656;SDS011;14279;50.010;8.260;2022-11-14T03:43:52;33.20;;;19.07;;
26656;SDS011;14279;50.010;8.260;2022-11-14T03:46:17;34.20;;;19.00;;
26656;SDS011;14279;50.010;8.260;2022-11-14T03:48:42;35.27;;;20.70;;
26656;SDS011;14279;50.010;8.260;2022-11-14T03:51:08;34.00;;;19.40;;
26656;SDS011;14279;50.010;8.260;2022-11-14T03:53:33;33.07;;;19.60;;
26656;SDS011;14279;50.010;8.260;2022-11-14T03:55:58;28.90;;;18.53;;
26656;SDS011;14279;50.010;8.260;2022-11-14T03:58:23;30.33;;;19.10;;
26656;SDS011;14279;50.010;8.260;2022-11-14T04:00:49;33.87;;;20.17;;
26656;SDS011;14279;50.010;8.260;2022-11-14T04:03:14;38.73;;;22.47;;
26656;SDS011;14279;50.010;8.260;2022-11-14T04:05:42;37.00;;;21.00;;
26656;SDS011;14279;50.010;8.260;2022-11-14T04:08:09;37.60;;;21.70;;
26656;SDS011;14279;50.010;8.260;2022-11-14T04:10:34;37.37;;;21.67;;
26656;SDS011;14279;50.010;8.260;2022-11-14T04:12:59;40.27;;;21.57;;
26656;SDS011;14279;50.010;8.260;2022-11-14T04:15:24;40.47;;;22.73;;
26656;SDS011;14279;50.010;8.260;2022-11-14T04:17:50;44.30;;;24.20;;
26656;SDS011;14279;50.010;8.260;2022-11-14T04:20:15;41.40;;;22.73;;
26656;SDS011;14279;50.010;8.260;2022-11-14T04:22:40;40.03;;;22.93;;
26656;SDS011;14279;50.010;8.260;2022-11-14T04:25:06;43.93;;;21.90;;
26656;SDS011;14279;50.010;8.260;2022-11-14T04:27:32;40.80;;;23.33;;
26656;SDS011;14279;50.010;8.260;2022-11-14T04:29:58;35.47;;;21.20;;
26656;SDS011;14279;50.010;8.260;2022-11-14T04:32:24;37.97;;;22.33;;
26656;SDS011;14279;50.010;8.260;2022-11-14T04:34:49;38.77;;;21.70;;
26656;SDS011;14279;50.010;8.260;2022-11-14T04:37:14;39.07;;;21.80;;
26656;SDS011;14279;50.010;8.260;2022-11-14T04:39:40;36.30;;;21.50;;
26656;SDS011;14279;50.010;8.260;2022-11-14T04:42:05;38.87;;;21.47;;
26656;SDS011;14279;50.010;8.260;2022-11-14T04:44:30;42.53;;;21.73;;
26656;SDS011;14279;50.010;8.260;2022-11-14T04:46:56;37.47;;;22.77;;
26656;SDS011;14279;50.010;8.260;2022-11-14T04:49:21;35.20;;;22.17;;
26656;SDS011;14279;50.010;8.260;2022-11-14T04:51:47;36.93;;;20.57;;
26656;SDS011;14279;50.010;8.260;2022-11-14T04:54:13;37.53;;;21.63;;
26656;SDS011;14279;50.010;8.260;2022-11-14T04:56:38;31.47;;;19.97;;
26656;SDS011;14279;50.010;8.260;2022-11-14T04:59:03;37.97;;;20.20;;
26656;SDS011;14279;50.010;8.260;2022-11-14T05:01:29;39.87;;;21.53;;
26656;SDS011;14279;50.010;8.260;2022-11-14T05:03:54;30.60;;;20.57;;
26656;SDS011;14279;50.010;8.260;2022-11-14T05:06:20;32.70;;;19.63;;
26656;SDS011;14279;50.010;8.260;2022-11-14T05:08:45;35.97;;;21.60;;
26656;SDS011;14279;50.010;8.260;2022-11-14T05:11:13;33.90;;;20.53;;
26656;SDS011;14279;50.010;8.260;2022-11-14T05:13:39;31.60;;;19.67;;
26656;SDS011;14279;50.010;8.260;2022-11-14T05:16:04;31.80;;;19.30;;
26656;SDS011;14279;50.010;8.260;2022-11-14T05:18:30;28.33;;;18.00;;
26656;SDS011;14279;50.010;8.260;2022-11-14T05:20:58;36.00;;;18.43;;
26656;SDS011;14279;50.010;8.260;2022-11-14T05:23:25;27.83;;;18.27;;
26656;SDS011;14279;50.010;8.260;2022-11-14T05:25:58;27.00;;;17.60;;
26656;SDS011;14279;50.010;8.260;2022-11-14T05:28:23;27.37;;;17.50;;
26656;SDS011;14279;50.010;8.260;2022-11-14T05:30:48;27.80;;;17.70;;
26656;SDS011;14279;50.010;8.260;2022-11-14T05:33:14;25.90;;;16.87;;
26656;SDS011;14279;50.010;8.260;2022-11-14T05:35:39;26.10;;;16.20;;
26656;SDS011;14279;50.010;8.260;2022-11-14T05:38:04;24.37;;;16.53;;
26656;SDS011;14279;50.010;8.260;2022-11-14T05:40:29;24.43;;;16.97;;
26656;SDS011;14279;50.010;8.260;2022-11-14T05:42:55;22.37;;;16.10;;
26656;SDS011;14279;50.010;8.260;2022-11-14T05:45:20;22.70;;;15.70;;
26656;SDS011;14279;50.010;8.260;2022-11-14T05:47:46;20.23;;;14.80;;
26656;SDS011;14279;50.010;8.260;2022-11-14T05:50:11;23.67;;;15.90;;
26656;SDS011;14279;50.010;8.260;2022-11-14T05:52:36;22.87;;;15.10;;
26656;SDS011;14279;50.010;8.260;2022-11-14T05:55:01;20.43;;;14.73;;
26656;SDS011;14279;50.010;8.260;2022-11-14T05:57:27;22.07;;;15.03;;
26656;SDS011;14279;50.010;8.260;2022-11-14T05:59:52;21.37;;;15.53;;
26656;SDS011;14279;50.010;8.260;2022-11-14T06:02:17;20.67;;;14.30;;
26656;SDS011;14279;50.010;8.260;2022-11-14T06:04:42;20.30;;;14.03;;
26656;SDS011;14279;50.010;8.260;2022-11-14T06:07:08;19.20;;;14.17;;
26656;SDS011;14279;50.010;8.260;2022-11-14T06:09:33;22.67;;;15.83;;
26656;SDS011;14279;50.010;8.260;2022-11-14T06:11:58;23.03;;;14.93;;
26656;SDS011;14279;50.010;8.260;2022-11-14T06:14:23;24.53;;;16.10;;
26656;SDS011;14279;50.010;8.260;2022-11-14T06:16:49;19.33;;;13.97;;
26656;SDS011;14279;50.010;8.260;2022-11-14T06:19:14;18.93;;;13.90;;
26656;SDS011;14279;50.010;8.260;2022-11-14T06:21:39;21.67;;;14.17;;
26656;SDS011;14279;50.010;8.260;2022-11-14T06:24:04;20.73;;;12.97;;
26656;SDS011;14279;50.010;8.260;2022-11-14T06:26:30;22.97;;;14.70;;
26656;SDS011;14279;50.010;8.260;2022-11-14T06:28:56;19.50;;;14.00;;
26656;SDS011;14279;50.010;8.260;2022-11-14T06:31:23;22.80;;;15.30;;
26656;SDS011;14279;50.010;8.260;2022-11-14T06:33:49;23.43;;;13.40;;
26656;SDS011;14279;50.010;8.260;2022-11-14T06:36:15;21.07;;;13.80;;
26656;SDS011;14279;50.010;8.260;2022-11-14T06:38:41;20.50;;;14.13;;
26656;SDS011;14279;50.010;8.260;2022-11-14T06:43:47;17.13;;;13.10;;
26656;SDS011;14279;50.010;8.260;2022-11-14T06:46:15;18.30;;;13.67;;
26656;SDS011;14279;50.010;8.260;2022-11-14T06:48:43;21.73;;;13.67;;
26656;SDS011;14279;50.010;8.260;2022-11-14T06:51:10;17.93;;;13.57;;
26656;SDS011;14279;50.010;8.260;2022-11-14T06:53:36;16.87;;;12.20;;
26656;SDS011;14279;50.010;8.260;2022-11-14T06:56:03;24.33;;;13.57;;
26656;SDS011;14279;50.010;8.260;2022-11-14T06:58:31;20.30;;;12.63;;
26656;SDS011;14279;50.010;8.260;2022-11-14T07:01:17;21.37;;;13.80;;
26656;SDS011;14279;50.010;8.260;2022-11-14T07:03:44;20.50;;;13.87;;
26656;SDS011;14279;50.010;8.260;2022-11-14T07:06:11;22.87;;;14.60;;
26656;SDS011;14279;50.010;8.260;2022-11-14T07:08:37;20.13;;;13.27;;
26656;SDS011;14279;50.010;8.260;2022-11-14T07:11:04;23.27;;;13.77;;
26656;SDS011;14279;50.010;8.260;2022-11-14T07:13:31;19.90;;;14.03;;
26656;SDS011;14279;50.010;8.260;2022-11-14T07:15:57;26.53;;;15.13;;
26656;SDS011;14279;50.010;8.260;2022-11-14T07:18:23;25.00;;;14.33;;
26656;SDS011;14279;50.010;8.260;2022-11-14T07:20:48;20.73;;;14.60;;
26656;SDS011;14279;50.010;8.260;2022-11-14T07:23:14;23.47;;;13.23;;
26656;SDS011;14279;50.010;8.260;2022-11-14T07:25:39;21.37;;;13.77;;
26656;SDS011;14279;50.010;8.260;2022-11-14T07:28:05;30.63;;;14.23;;
26656;SDS011;14279;50.010;8.260;2022-11-14T07:30:31;25.53;;;13.97;;
26656;SDS011;14279;50.010;8.260;2022-11-14T07:32:57;22.53;;;15.03;;
26656;SDS011;14279;50.010;8.260;2022-11-14T07:35:23;22.10;;;12.77;;
26656;SDS011;14279;50.010;8.260;2022-11-14T07:37:49;22.90;;;14.20;;
26656;SDS011;14279;50.010;8.260;2022-11-14T07:40:15;19.60;;;13.50;;
26656;SDS011;14279;50.010;8.260;2022-11-14T07:42:40;20.30;;;14.30;;
26656;SDS011;14279;50.010;8.260;2022-11-14T07:45:06;19.53;;;13.03;;
26656;SDS011;14279;50.010;8.260;2022-11-14T07:47:31;25.10;;;15.27;;
26656;SDS011;14279;50.010;8.260;2022-11-14T07:49:57;23.67;;;14.10;;
26656;SDS011;14279;50.010;8.260;2022-11-14T07:52:22;25.57;;;14.33;;
26656;SDS011;14279;50.010;8.260;2022-11-14T07:54:47;23.10;;;15.47;;
26656;SDS011;14279;50.010;8.260;2022-11-14T07:57:12;22.70;;;14.33;;
26656;SDS011;14279;50.010;8.260;2022-11-14T07:59:38;24.00;;;15.30;;
26656;SDS011;14279;50.010;8.260;2022-11-14T08:02:03;23.40;;;14.50;;
26656;SDS011;14279;50.010;8.260;2022-11-14T08:04:28;23.10;;;15.50;;
26656;SDS011;14279;50.010;8.260;2022-11-14T08:06:53;20.73;;;14.30;;
26656;SDS011;14279;50.010;8.260;2022-11-14T08:09:19;23.43;;;15.53;;
26656;SDS011;14279;50.010;8.260;2022-11-14T08:11:44;26.40;;;16.57;;
26656;SDS011;14279;50.010;8.260;2022-11-14T08:14:12;29.07;;;16.97;;
26656;SDS011;14279;50.010;8.260;2022-11-14T08:16:38;24.80;;;14.30;;
26656;SDS011;14279;50.010;8.260;2022-11-14T08:19:03;24.70;;;15.00;;
26656;SDS011;14279;50.010;8.260;2022-11-14T08:21:28;26.20;;;14.80;;
26656;SDS011;14279;50.010;8.260;2022-11-14T08:23:54;22.63;;;15.70;;
26656;SDS011;14279;50.010;8.260;2022-11-14T08:26:19;27.20;;;16.37;;
26656;SDS011;14279;50.010;8.260;2022-11-14T08:28:44;26.43;;;15.43;;
26656;SDS011;14279;50.010;8.260;2022-11-14T08:31:09;24.90;;;15.50;;
26656;SDS011;14279;50.010;8.260;2022-11-14T08:33:35;25.23;;;16.37;;
26656;SDS011;14279;50.010;8.260;2022-11-14T08:36:00;23.87;;;15.90;;
26656;SDS011;14279;50.010;8.260;2022-11-14T08:38:26;26.70;;;18.37;;
26656;SDS011;14279;50.010;8.260;2022-11-14T08:40:52;26.30;;;17.00;;
26656;SDS011;14279;50.010;8.260;2022-11-14T08:43:17;28.33;;;17.23;;
26656;SDS011;14279;50.010;8.260;2022-11-14T08:45:42;29.13;;;17.87;;
26656;SDS011;14279;50.010;8.260;2022-11-14T08:48:07;26.67;;;17.43;;
26656;SDS011;14279;50.010;8.260;2022-11-14T08:50:33;34.10;;;17.40;;
26656;SDS011;14279;50.010;8.260;2022-11-14T08:52:58;25.50;;;17.30;;
26656;SDS011;14279;50.010;8.260;2022-11-14T08:55:23;37.73;;;19.13;;
26656;SDS011;14279;50.010;8.260;2022-11-14T08:57:49;33.33;;;19.80;;
26656;SDS011;14279;50.010;8.260;2022-11-14T09:00:17;29.00;;;18.13;;
26656;SDS011;14279;50.010;8.260;2022-11-14T09:02:43;35.37;;;19.83;;
26656;SDS011;14279;50.010;8.260;2022-11-14T09:05:08;29.23;;;19.83;;
26656;SDS011;14279;50.010;8.260;2022-11-14T09:07:34;31.53;;;18.67;;
26656;SDS011;14279;50.010;8.260;2022-11-14T09:09:59;28.43;;;18.33;;
26656;SDS011;14279;50.010;8.260;2022-11-14T09:12:24;30.60;;;18.30;;
26656;SDS011;14279;50.010;8.260;2022-11-14T09:14:50;30.60;;;18.47;;
26656;SDS011;14279;50.010;8.260;2022-11-14T09:17:15;33.83;;;19.20;;
26656;SDS011;14279;50.010;8.260;2022-11-14T09:19:40;31.93;;;19.13;;
26656;SDS011;14279;50.010;8.260;2022-11-14T09:22:06;34.93;;;19.80;;
26656;SDS011;14279;50.010;8.260;2022-11-14T09:24:31;31.40;;;18.60;;
26656;SDS011;14279;50.010;8.260;2022-11-14T09:26:56;36.60;;;19.97;;
26656;SDS011;14279;50.010;8.260;2022-11-14T09:29:21;30.30;;;19.60;;
26656;SDS011;14279;50.010;8.260;2022-11-14T09:31:46;32.40;;;20.10;;
26656;SDS011;14279;50.010;8.260;2022-11-14T09:34:12;29.90;;;18.20;;
26656;SDS011;14279;50.010;8.260;2022-11-14T09:36:37;30.17;;;19.23;;
26656;SDS011;14279;50.010;8.260;2022-11-14T09:39:03;29.60;;;19.07;;
26656;SDS011;14279;50.010;8.260;2022-11-14T09:44:27;31.27;;;20.50;;
26656;SDS011;14279;50.010;8.260;2022-11-14T09:47:16;28.13;;;19.67;;
26656;SDS011;14279;50.010;8.260;2022-11-14T09:49:45;29.80;;;18.50;;
26656;SDS011;14279;50.010;8.260;2022-11-14T09:52:29;28.70;;;18.77;;
26656;SDS011;14279;50.010;8.260;2022-11-14T09:55:08;30.50;;;18.27;;
26656;SDS011;14279;50.010;8.260;2022-11-14T09:57:40;31.37;;;19.47;;
26656;SDS011;14279;50.010;8.260;2022-11-14T10:00:15;33.40;;;18.50;;
26656;SDS011;14279;50.010;8.260;2022-11-14T10:02:46;33.70;;;18.50;;
26656;SDS011;14279;50.010;8.260;2022-11-14T10:10:49;28.70;;;19.07;;
26656;SDS011;14279;50.010;8.260;2022-11-14T10:13:35;28.57;;;18.40;;
26656;SDS011;14279;50.010;8.260;2022-11-14T10:19:17;25.70;;;17.30;;
26656;SDS011;14279;50.010;8.260;2022-11-14T10:32:38;27.10;;;17.27;;
26656;SDS011;14279;50.010;8.260;2022-11-14T10:38:08;26.80;;;16.97;;
26656;SDS011;14279;50.010;8.260;2022-11-14T10:43:15;39.87;;;18.13;;
26656;SDS011;14279;50.010;8.260;2022-11-14T10:46:10;23.10;;;16.10;;
26656;SDS011;14279;50.010;8.260;2022-11-14T10:48:43;26.07;;;16.20;;
26656;SDS011;14279;50.010;8.260;2022-11-14T10:54:02;21.90;;;15.10;;
26656;SDS011;14279;50.010;8.260;2022-11-14T10:56:45;23.63;;;15.60;;
26656;SDS011;14279;50.010;8.260;2022-11-14T10:59:12;23.87;;;15.80;;
26656;SDS011;14279;50.010;8.260;2022-11-14T11:04:49;24.77;;;16.10;;
26656;SDS011;14279;50.010;8.260;2022-11-14T11:09:32;23.70;;;15.60;;
26656;SDS011;14279;50.010;8.260;2022-11-14T11:12:19;24.00;;;15.43;;
26656;SDS011;14279;50.010;8.260;2022-11-14T11:14:48;24.50;;;16.43;;
26656;SDS011;14279;50.010;8.260;2022-11-14T11:17:32;25.13;;;17.47;;
26656;SDS011;14279;50.010;8.260;2022-11-14T11:20:15;31.67;;;17.20;;
26656;SDS011;14279;50.010;8.260;2022-11-14T11:25:34;22.67;;;15.87;;
26656;SDS011;14279;50.010;8.260;2022-11-14T11:28:17;23.67;;;16.63;;
26656;SDS011;14279;50.010;8.260;2022-11-14T11:30:58;25.20;;;16.40;;
26656;SDS011;14279;50.010;8.260;2022-11-14T11:33:26;25.20;;;15.83;;
26656;SDS011;14279;50.010;8.260;2022-11-14T11:35:57;26.97;;;17.20;;
26656;SDS011;14279;50.010;8.260;2022-11-14T11:38:29;30.70;;;17.00;;
26656;SDS011;14279;50.010;8.260;2022-11-14T11:43:49;28.90;;;17.90;;
26656;SDS011;14279;50.010;8.260;2022-11-14T11:46:21;22.63;;;14.77;;
26656;SDS011;14279;50.010;8.260;2022-11-14T11:48:54;22.20;;;15.60;;
26656;SDS011;14279;50.010;8.260;2022-11-14T11:51:28;19.47;;;14.30;;
26656;SDS011;14279;50.010;8.260;2022-11-14T11:54:02;23.40;;;14.40;;
26656;SDS011;14279;50.010;8.260;2022-11-14T11:56:33;24.07;;;14.07;;
26656;SDS011;14279;50.010;8.260;2022-11-14T11:59:09;22.40;;;14.93;;
26656;SDS011;14279;50.010;8.260;2022-11-14T12:01:46;19.27;;;13.13;;
26656;SDS011;14279;50.010;8.260;2022-11-14T12:04:11;20.20;;;13.67;;
26656;SDS011;14279;50.010;8.260;2022-11-14T12:06:42;20.30;;;13.53;;
26656;SDS011;14279;50.010;8.260;2022-11-14T12:09:16;22.50;;;11.90;;
26656;SDS011;14279;50.010;8.260;2022-11-14T12:11:48;16.13;;;11.17;;
26656;SDS011;14279;50.010;8.260;2022-11-14T12:26:19;15.50;;;9.07;;
26656;SDS011;14279;50.010;8.260;2022-11-14T12:31:23;14.90;;;10.23;;
26656;SDS011;14279;50.010;8.260;2022-11-14T12:33:53;13.20;;;9.77;;
26656;SDS011;14279;50.010;8.260;2022-11-14T12:36:26;17.83;;;10.93;;
26656;SDS011;14279;50.010;8.260;2022-11-14T12:38:54;13.60;;;10.70;;
26656;SDS011;14279;50.010;8.260;2022-11-14T12:41:23;17.10;;;11.20;;
26656;SDS011;14279;50.010;8.260;2022-11-14T12:43:50;15.73;;;10.87;;
26656;SDS011;14279;50.010;8.260;2022-11-14T12:46:16;14.70;;;10.33;;
26656;SDS011;14279;50.010;8.260;2022-11-14T12:48:44;14.77;;;10.23;;
26656;SDS011;14279;50.010;8.260;2022-11-14T12:53:54;14.50;;;9.70;;
26656;SDS011;14279;50.010;8.260;2022-11-14T13:02:04;15.50;;;10.70;;
26656;SDS011;14279;50.010;8.260;2022-11-14T13:10:39;18.20;;;10.93;;
26656;SDS011;14279;50.010;8.260;2022-11-14T13:13:06;17.33;;;10.63;;
26656;SDS011;14279;50.010;8.260;2022-11-14T13:15:57;13.93;;;10.07;;
26656;SDS011;14279;50.010;8.260;2022-11-14T13:18:49;18.07;;;10.50;;
26656;SDS011;14279;50.010;8.260;2022-11-14T13:22:15;18.30;;;11.77;;
26656;SDS011;14279;50.010;8.260;2022-11-14T13:27:26;19.90;;;13.00;;
26656;SDS011;14279;50.010;8.260;2022-11-14T13:29:53;21.20;;;13.33;;
26656;SDS011;14279;50.010;8.260;2022-11-14T13:35:29;19.53;;;12.57;;
26656;SDS011;14279;50.010;8.260;2022-11-14T13:46:16;20.50;;;13.77;;
26656;SDS011;14279;50.010;8.260;2022-11-14T13:51:43;22.20;;;12.80;;
26656;SDS011;14279;50.010;8.260;2022-11-14T13:54:10;20.47;;;11.63;;
26656;SDS011;14279;50.010;8.260;2022-11-14T13:56:48;16.33;;;12.40;;
26656;SDS011;14279;50.010;8.260;2022-11-14T13:59:22;18.53;;;12.20;;
26656;SDS011;14279;50.010;8.260;2022-11-14T14:04:59;16.60;;;12.13;;
26656;SDS011;14279;50.010;8.260;2022-11-14T14:07:46;16.27;;;12.40;;
26656;SDS011;14279;50.010;8.260;2022-11-14T14:10:31;19.03;;;12.60;;
26656;SDS011;14279;50.010;8.260;2022-11-14T14:29:47;21.10;;;9.00;;
26656;SDS011;14279;50.010;8.260;2022-11-14T14:32:22;14.10;;;9.57;;
26656;SDS011;14279;50.010;8.260;2022-11-14T14:34:48;16.73;;;9.80;;
26656;SDS011;14279;50.010;8.260;2022-11-14T14:37:15;20.17;;;10.80;;
26656;SDS011;14279;50.010;8.260;2022-11-14T14:39:53;13.70;;;9.20;;
26656;SDS011;14279;50.010;8.260;2022-11-14T14:42:20;14.07;;;8.80;;
26656;SDS011;14279;50.010;8.260;2022-11-14T14:44:45;12.00;;;9.60;;
26656;SDS011;14279;50.010;8.260;2022-11-14T14:49:56;13.27;;;9.60;;
26656;SDS011;14279;50.010;8.260;2022-11-14T14:54:57;16.87;;;10.10;;
26656;SDS011;14279;50.010;8.260;2022-11-14T14:57:26;21.73;;;9.93;;
26656;SDS011;14279;50.010;8.260;2022-11-14T14:59:59;17.13;;;9.73;;
26656;SDS011;14279;50.010;8.260;2022-11-14T15:02:32;14.73;;;10.50;;
26656;SDS011;14279;50.010;8.260;2022-11-14T15:04:58;17.63;;;10.30;;
26656;SDS011;14279;50.010;8.260;2022-11-14T15:07:25;12.93;;;9.73;;
26656;SDS011;14279;50.010;8.260;2022-11-14T15:09:53;14.40;;;9.50;;
26656;SDS011;14279;50.010;8.260;2022-11-14T15:12:22;23.27;;;9.67;;
26656;SDS011;14279;50.010;8.260;2022-11-14T15:14:48;15.43;;;9.77;;
26656;SDS011;14279;50.010;8.260;2022-11-14T15:17:15;16.67;;;10.70;;
26656;SDS011;14279;50.010;8.260;2022-11-14T15:19:42;15.90;;;10.20;;
26656;SDS011;14279;50.010;8.260;2022-11-14T15:25:02;32.03;;;10.10;;
26656;SDS011;14279;50.010;8.260;2022-11-14T15:27:52;25.53;;;11.10;;
26656;SDS011;14279;50.010;8.260;2022-11-14T15:30:23;23.60;;;13.00;;
26656;SDS011;14279;50.010;8.260;2022-11-14T15:32:52;36.40;;;12.50;;
26656;SDS011;14279;50.010;8.260;2022-11-14T15:40:32;18.10;;;9.90;;
26656;SDS011;14279;50.010;8.260;2022-11-14T15:42:59;18.77;;;10.00;;
26656;SDS011;14279;50.010;8.260;2022-11-14T15:47:59;13.40;;;8.87;;
26656;SDS011;14279;50.010;8.260;2022-11-14T15:50:29;11.00;;;7.63;;
26656;SDS011;14279;50.010;8.260;2022-11-14T15:55:22;15.20;;;8.93;;
26656;SDS011;14279;50.010;8.260;2022-11-14T15:57:48;9.53;;;7.50;;
26656;SDS011;14279;50.010;8.260;2022-11-14T16:00:14;14.33;;;8.97;;
26656;SDS011;14279;50.010;8.260;2022-11-14T16:02:42;10.17;;;7.50;;
26656;SDS011;14279;50.010;8.260;2022-11-14T16:05:29;14.00;;;8.30;;
26656;SDS011;14279;50.010;8.260;2022-11-14T16:07:55;11.17;;;7.50;;
26656;SDS011;14279;50.010;8.260;2022-11-14T16:10:22;12.00;;;8.03;;
26656;SDS011;14279;50.010;8.260;2022-11-14T16:12:49;12.73;;;8.90;;
26656;SDS011;14279;50.010;8.260;2022-11-14T16:15:14;12.10;;;8.40;;
26656;SDS011;14279;50.010;8.260;2022-11-14T16:17:42;14.27;;;8.60;;
26656;SDS011;14279;50.010;8.260;2022-11-14T16:20:12;13.50;;;8.83;;
26656;SDS011;14279;50.010;8.260;2022-11-14T16:22:40;16.57;;;9.77;;
26656;SDS011;14279;50.010;8.260;2022-11-14T16:25:17;13.40;;;9.50;;
26656;SDS011;14279;50.010;8.260;2022-11-14T16:27:49;13.20;;;8.77;;
26656;SDS011;14279;50.010;8.260;2022-11-14T16:30:15;15.40;;;10.30;;
26656;SDS011;14279;50.010;8.260;2022-11-14T16:32:43;13.53;;;9.80;;
26656;SDS011;14279;50.010;8.260;2022-11-14T16:35:13;18.47;;;10.40;;
26656;SDS011;14279;50.010;8.260;2022-11-14T16:37:42;17.83;;;10.43;;